Time;durP1;ratioP1;P1;durP2;ratioP2;P2;SDS_P1;SDS_P2;PMS_P1;PMS_P2;Temp;Humidity;BMP_temperature;BMP_pressure;BME280_temperature;BME280_humidity;BME280_pressure;Samples;Min_cycle;Max_cycle;Signal;HPM_P1;HPM_P2
2023/04/12 00:01:26;;;;;;;3.03;0.82;;;;;;;9.81;100.00;99221.13;5037880;28;20053;-74
2023/04/12 00:03:53;;;;;;;4.50;0.95;;;;;;;9.67;100.00;99206.50;4987181;28;20035;-74
2023/04/12 00:06:24;;;;;;;3.78;0.95;;;;;;;9.57;100.00;99200.13;5016372;28;20430;-74
2023/04/12 00:08:50;;;;;;;4.10;1.00;;;;;;;9.57;100.00;99208.44;5030129;28;20116;-74
2023/04/12 00:11:15;;;;;;;5.18;1.00;;;;;;;9.54;100.00;99211.84;4983387;28;20033;-74
2023/04/12 00:13:41;;;;;;;2.88;0.80;;;;;;;9.48;100.00;99207.59;5019071;28;20041;-75
2023/04/12 00:16:07;;;;;;;3.45;1.08;;;;;;;9.39;100.00;99212.28;5032301;28;20033;-74
2023/04/12 00:18:33;;;;;;;7.00;1.33;;;;;;;9.40;100.00;99211.13;5046501;28;20533;-74
2023/04/12 00:20:58;;;;;;;2.60;0.80;;;;;;;9.36;100.00;99215.66;5019530;28;20044;-74
2023/04/12 00:23:23;;;;;;;5.80;1.13;;;;;;;9.38;100.00;99208.66;5023900;28;20042;-74
2023/04/12 00:25:49;;;;;;;5.65;1.10;;;;;;;9.37;100.00;99181.28;5016882;28;20061;-74
2023/04/12 00:28:15;;;;;;;4.25;0.95;;;;;;;9.28;100.00;99161.03;5027377;28;20040;-74
2023/04/12 00:30:40;;;;;;;3.40;0.80;;;;;;;9.29;100.00;99168.22;5025631;28;20286;-74
2023/04/12 00:33:06;;;;;;;5.35;1.02;;;;;;;9.28;100.00;99180.44;5022409;28;20048;-74
2023/04/12 00:35:31;;;;;;;4.47;0.90;;;;;;;9.28;100.00;99166.59;5017406;28;20030;-74
2023/04/12 00:37:57;;;;;;;3.55;0.93;;;;;;;9.28;100.00;99174.91;5019273;28;20079;-74
2023/04/12 00:40:22;;;;;;;3.78;0.90;;;;;;;9.29;100.00;99179.28;4999680;28;20052;-74
2023/04/12 00:42:48;;;;;;;7.07;1.30;;;;;;;9.26;100.00;99182.69;5018525;28;20036;-74
2023/04/12 00:45:13;;;;;;;5.25;0.80;;;;;;;9.26;100.00;99174.38;5035912;28;20509;-74
2023/04/12 00:47:39;;;;;;;3.75;0.77;;;;;;;9.23;100.00;99184.16;4990430;28;20032;-74
2023/04/12 00:50:05;;;;;;;3.53;0.60;;;;;;;9.21;100.00;99186.41;5032629;28;20046;-74
2023/04/12 00:52:33;;;;;;;3.05;0.73;;;;;;;9.16;100.00;99184.63;5025026;28;20120;-74
2023/04/12 00:55:02;;;;;;;4.20;0.63;;;;;;;9.19;100.00;99188.69;5022035;28;20445;-74
2023/04/12 00:57:30;;;;;;;5.30;0.70;;;;;;;9.13;100.00;99184.41;5025370;28;20434;-74
2023/04/12 00:59:55;;;;;;;4.63;1.00;;;;;;;9.01;100.00;99178.66;5035173;28;20112;-74
2023/04/12 01:02:21;;;;;;;6.90;1.10;;;;;;;8.95;100.00;99169.66;4999937;28;20026;-74
2023/04/12 01:04:49;;;;;;;3.88;0.70;;;;;;;8.96;100.00;99171.28;5051362;28;20029;-74
2023/04/12 01:07:18;;;;;;;8.52;1.00;;;;;;;8.96;100.00;99179.56;5002703;28;20037;-74
2023/04/12 01:09:59;;;;;;;6.50;1.05;;;;;;;8.89;100.00;99170.91;5053143;28;20039;-74
2023/04/12 01:12:52;;;;;;;3.47;0.60;;;;;;;8.87;100.00;99159.34;4984555;28;20030;-74
2023/04/12 01:15:18;;;;;;;5.60;0.82;;;;;;;8.88;100.00;99169.25;5029550;28;20033;-74
2023/04/12 01:17:48;;;;;;;4.88;0.80;;;;;;;8.84;100.00;99193.19;5018087;28;20040;-74
2023/04/12 01:20:15;;;;;;;5.00;1.08;;;;;;;8.78;100.00;99194.44;5030063;28;20025;-74
2023/04/12 01:23:12;;;;;;;5.72;1.20;;;;;;;8.77;100.00;99165.13;5034664;28;20037;-74
2023/04/12 01:25:46;;;;;;;5.57;0.90;;;;;;;8.72;100.00;99179.91;5017676;28;20033;-74
2023/04/12 01:28:14;;;;;;;2.20;0.82;;;;;;;8.68;100.00;99178.91;5015467;28;20060;-74
2023/04/12 01:30:40;;;;;;;5.25;0.90;;;;;;;8.72;100.00;99183.50;5001963;28;20025;-74
2023/04/12 01:33:06;;;;;;;4.30;1.00;;;;;;;8.68;100.00;99165.88;5022288;28;20030;-74
2023/04/12 01:35:31;;;;;;;2.50;0.60;;;;;;;8.61;100.00;99150.81;5050248;28;20033;-74
2023/04/12 01:37:57;;;;;;;4.55;0.70;;;;;;;8.60;100.00;99157.50;5018412;28;20025;-74
2023/04/12 01:40:26;;;;;;;5.07;0.80;;;;;;;8.59;100.00;99148.38;4982685;28;20386;-74
2023/04/12 01:42:53;;;;;;;4.22;0.93;;;;;;;8.61;100.00;99151.66;4985390;28;20033;-74
2023/04/12 01:45:18;;;;;;;2.72;0.70;;;;;;;8.58;100.00;99141.22;5031624;28;20382;-74
2023/04/12 01:47:44;;;;;;;2.80;0.60;;;;;;;8.58;100.00;99138.47;5044668;28;20034;-74
2023/04/12 01:50:20;;;;;;;4.57;0.95;;;;;;;8.59;100.00;99148.38;5015910;28;20041;-74
2023/04/12 01:52:51;;;;;;;2.63;0.50;;;;;;;8.60;100.00;99154.72;5001789;28;20029;-74
2023/04/12 01:55:17;;;;;;;2.80;0.55;;;;;;;8.58;100.00;99168.91;5017860;28;20033;-74
2023/04/12 01:57:42;;;;;;;3.65;0.63;;;;;;;8.58;100.00;99159.75;5022861;28;20033;-74
2023/04/12 02:00:09;;;;;;;2.97;0.60;;;;;;;8.59;100.00;99155.88;5034518;28;20041;-74
2023/04/12 02:02:35;;;;;;;3.20;0.68;;;;;;;8.57;100.00;99156.19;5027618;28;20032;-74
2023/04/12 02:05:00;;;;;;;4.55;0.95;;;;;;;8.57;100.00;99175.53;5002875;28;20025;-74
2023/04/12 02:07:26;;;;;;;5.90;0.40;;;;;;;8.57;100.00;99189.38;5034810;28;20036;-74
2023/04/12 02:09:52;;;;;;;3.45;0.80;;;;;;;8.55;100.00;99179.75;5005442;28;20064;-74
2023/04/12 02:12:17;;;;;;;5.60;0.70;;;;;;;8.56;100.00;99170.34;4988661;28;20037;-74
2023/04/12 02:14:43;;;;;;;2.53;0.65;;;;;;;8.52;100.00;99166.56;5021702;28;20025;-74
2023/04/12 02:17:11;;;;;;;3.38;0.60;;;;;;;8.55;100.00;99158.44;5024756;28;20082;-74
2023/04/12 02:19:37;;;;;;;2.50;0.55;;;;;;;8.52;100.00;99153.53;4989614;28;20026;-74
2023/04/12 02:22:04;;;;;;;3.65;0.77;;;;;;;8.50;100.00;99137.25;5020599;28;20471;-74
2023/04/12 02:24:30;;;;;;;3.15;0.80;;;;;;;8.48;100.00;99138.69;5032404;28;20405;-74
2023/04/12 02:26:57;;;;;;;5.03;0.65;;;;;;;8.45;100.00;99131.84;5033057;28;20025;-74
2023/04/12 02:29:23;;;;;;;3.47;0.70;;;;;;;8.44;100.00;99140.44;5017929;28;20116;-74
2023/04/12 02:31:48;;;;;;;3.85;0.73;;;;;;;8.43;100.00;99149.88;5016614;28;20030;-74
2023/04/12 02:34:16;;;;;;;4.00;0.80;;;;;;;8.41;100.00;99147.44;5044084;28;20029;-74
2023/04/12 02:36:45;;;;;;;4.30;0.80;;;;;;;8.38;100.00;99144.44;5053282;28;20044;-74
2023/04/12 02:39:11;;;;;;;1.45;0.40;;;;;;;8.36;100.00;99139.22;5033202;28;20037;-74
2023/04/12 02:41:36;;;;;;;3.70;0.80;;;;;;;8.33;100.00;99139.84;5034083;28;20052;-74
2023/04/12 02:44:02;;;;;;;4.25;0.60;;;;;;;8.33;100.00;99139.84;5037799;28;20040;-74
2023/04/12 02:46:28;;;;;;;3.10;0.70;;;;;;;8.32;100.00;99148.47;5007805;28;20025;-74
2023/04/12 02:48:53;;;;;;;2.15;0.52;;;;;;;8.29;100.00;99142.41;4990896;28;20049;-74
2023/04/12 02:51:18;;;;;;;3.03;0.82;;;;;;;8.31;100.00;99147.66;5037003;28;20032;-74
2023/04/12 02:53:44;;;;;;;3.83;0.93;;;;;;;8.28;100.00;99137.22;5021115;28;20465;-74
2023/04/12 02:56:09;;;;;;;5.65;0.82;;;;;;;8.25;100.00;99144.19;5007808;28;20038;-74
2023/04/12 02:58:35;;;;;;;2.50;0.70;;;;;;;8.24;100.00;99137.00;5028388;28;20087;-74
2023/04/12 03:01:01;;;;;;;2.60;0.70;;;;;;;8.23;100.00;99140.91;5020525;28;20041;-74
2023/04/12 03:03:27;;;;;;;2.20;0.60;;;;;;;8.21;100.00;99140.38;5043698;28;20026;-74
2023/04/12 03:05:53;;;;;;;4.40;0.65;;;;;;;8.21;100.00;99159.75;5034086;28;20025;-74
2023/04/12 03:08:19;;;;;;;3.80;0.73;;;;;;;8.20;100.00;99160.88;5033983;28;20164;-74
2023/04/12 03:10:44;;;;;;;5.60;1.17;;;;;;;8.21;100.00;99145.09;5050076;28;20034;-74
2023/04/12 03:13:10;;;;;;;4.32;1.02;;;;;;;8.20;100.00;99141.53;5026354;28;20037;-74
2023/04/12 03:15:35;;;;;;;3.53;1.20;;;;;;;8.19;100.00;99139.91;5046818;28;20022;-74
2023/04/12 03:18:01;;;;;;;4.75;1.85;;;;;;;8.14;100.00;99144.72;5007650;28;20120;-74
2023/04/12 03:20:27;;;;;;;6.43;1.80;;;;;;;8.14;100.00;99137.25;5046365;28;20029;-74
2023/04/12 03:22:53;;;;;;;6.18;1.67;;;;;;;8.12;100.00;99133.97;5027528;28;20021;-74
2023/04/12 03:25:18;;;;;;;5.32;1.60;;;;;;;8.13;100.00;99132.81;5023107;28;20033;-74
2023/04/12 03:27:44;;;;;;;6.80;1.80;;;;;;;8.11;100.00;99137.03;4987636;28;20029;-74
2023/04/12 03:30:10;;;;;;;4.68;1.60;;;;;;;8.12;100.00;99139.50;5020074;28;20033;-74
2023/04/12 03:32:36;;;;;;;5.05;1.80;;;;;;;8.09;100.00;99126.28;5004054;28;20026;-76
2023/04/12 03:35:02;;;;;;;6.20;1.98;;;;;;;8.10;100.00;99127.09;5023612;28;20181;-74
2023/04/12 03:37:28;;;;;;;4.03;1.42;;;;;;;8.10;100.00;99138.97;5005482;28;20056;-74
2023/04/12 03:39:53;;;;;;;3.53;1.35;;;;;;;8.07;100.00;99134.88;5003613;28;20029;-74
2023/04/12 03:42:19;;;;;;;3.83;1.17;;;;;;;8.05;100.00;99136.31;5052211;28;20029;-74
2023/04/12 03:44:44;;;;;;;5.03;1.10;;;;;;;8.05;100.00;99142.69;5019401;28;20066;-74
2023/04/12 03:47:10;;;;;;;4.47;1.02;;;;;;;8.08;100.00;99132.97;5053130;28;20087;-74
2023/04/12 03:49:37;;;;;;;4.18;1.20;;;;;;;8.06;100.00;99149.03;5019830;28;20049;-74
2023/04/12 03:52:06;;;;;;;3.67;1.15;;;;;;;8.02;100.00;99156.31;5030282;28;20033;-74
2023/04/12 03:54:32;;;;;;;4.18;0.90;;;;;;;8.00;100.00;99167.69;5032795;28;20125;-74
2023/04/12 03:56:57;;;;;;;5.57;1.27;;;;;;;8.00;100.00;99161.34;5023947;28;20693;-74
2023/04/12 03:59:23;;;;;;;6.80;1.60;;;;;;;8.01;100.00;99168.50;5054203;28;20474;-74
2023/04/12 04:01:48;;;;;;;3.35;1.20;;;;;;;7.97;100.00;99148.97;5037292;28;20059;-74
2023/04/12 04:04:14;;;;;;;4.07;1.20;;;;;;;7.97;100.00;99142.63;5003146;28;20033;-74
2023/04/12 04:06:39;;;;;;;4.70;1.00;;;;;;;7.95;100.00;99142.91;4987047;28;20033;-74
2023/04/12 04:09:05;;;;;;;3.70;1.05;;;;;;;7.90;100.00;99153.25;5036051;28;20029;-74
2023/04/12 04:11:31;;;;;;;4.13;0.90;;;;;;;7.92;100.00;99126.94;4999674;28;20132;-74
2023/04/12 04:13:56;;;;;;;4.15;1.13;;;;;;;7.87;100.00;99129.81;5013421;28;20026;-74
2023/04/12 04:16:22;;;;;;;3.22;0.98;;;;;;;7.83;100.00;99124.09;4986863;28;20053;-74
2023/04/12 04:18:47;;;;;;;5.35;1.30;;;;;;;7.86;100.00;99124.63;5031641;28;20036;-74
2023/04/12 04:21:13;;;;;;;3.33;0.80;;;;;;;7.82;100.00;99136.28;5043413;28;20052;-74
2023/04/12 04:23:38;;;;;;;2.53;0.77;;;;;;;7.79;100.00;99120.31;5023392;28;20029;-74
2023/04/12 04:26:09;;;;;;;4.07;0.90;;;;;;;7.78;100.00;99140.78;5020607;28;20087;-74
2023/04/12 04:28:38;;;;;;;3.88;0.80;;;;;;;7.79;100.00;99152.66;5019091;28;20033;-74
2023/04/12 04:31:05;;;;;;;3.45;1.00;;;;;;;7.74;100.00;99156.34;4998668;28;20421;-74
2023/04/12 04:33:35;;;;;;;4.18;0.98;;;;;;;7.71;100.00;99147.84;5019312;28;20034;-74
2023/04/12 04:36:01;;;;;;;2.75;0.90;;;;;;;7.73;100.00;99159.44;5002533;28;20025;-74
2023/04/12 04:38:27;;;;;;;3.53;1.42;;;;;;;7.68;100.00;99160.34;4999407;28;20034;-74
2023/04/12 04:40:52;;;;;;;3.53;0.90;;;;;;;7.66;100.00;99153.47;5018764;28;20389;-74
2023/04/12 04:43:19;;;;;;;3.35;0.80;;;;;;;7.67;100.00;99144.91;5002276;28;20036;-74
2023/04/12 04:45:47;;;;;;;3.97;1.00;;;;;;;7.66;100.00;99147.94;5020239;28;20021;-74
2023/04/12 04:48:13;;;;;;;4.55;0.90;;;;;;;7.63;100.00;99159.63;5023185;28;20095;-75
2023/04/12 04:50:38;;;;;;;2.33;0.63;;;;;;;7.59;100.00;99170.47;5002687;28;20021;-74
2023/04/12 04:53:03;;;;;;;2.85;1.02;;;;;;;7.59;100.00;99178.78;5018659;28;20033;-74
2023/04/12 04:55:29;;;;;;;4.18;1.00;;;;;;;7.57;100.00;99181.81;4986000;28;20029;-74
2023/04/12 04:57:56;;;;;;;3.50;0.95;;;;;;;7.54;100.00;99187.97;5031369;28;20037;-75
2023/04/12 05:00:24;;;;;;;5.18;1.23;;;;;;;7.53;100.00;99188.28;5010325;28;20119;-74
2023/04/12 05:02:50;;;;;;;6.75;1.10;;;;;;;7.53;100.00;99180.00;5035173;28;20021;-74
2023/04/12 05:05:15;;;;;;;3.90;1.00;;;;;;;7.51;100.00;99176.72;5018395;28;20386;-74
2023/04/12 05:07:44;;;;;;;2.95;0.80;;;;;;;7.47;100.00;99172.94;4985986;28;20029;-74
2023/04/12 05:10:09;;;;;;;2.95;1.00;;;;;;;7.43;100.00;99172.72;5004687;28;20060;-74
2023/04/12 05:12:36;;;;;;;6.82;1.63;;;;;;;7.42;100.00;99171.09;5038341;28;20025;-74
2023/04/12 05:15:02;;;;;;;3.25;0.70;;;;;;;7.40;100.00;99173.34;4998975;28;20036;-74
2023/04/12 05:17:27;;;;;;;4.40;1.13;;;;;;;7.37;100.00;99172.00;5017875;28;20029;-74
2023/04/12 05:19:53;;;;;;;2.78;0.90;;;;;;;7.37;100.00;99176.72;5018171;28;20033;-74
2023/04/12 05:22:20;;;;;;;3.63;0.85;;;;;;;7.34;100.00;99186.41;5017556;28;20068;-74
2023/04/12 05:24:48;;;;;;;3.45;0.80;;;;;;;7.32;100.00;99176.78;5015218;28;20034;-74
2023/04/12 05:27:17;;;;;;;4.32;1.00;;;;;;;7.30;100.00;99190.94;5032139;28;20048;-74
2023/04/12 05:29:43;;;;;;;5.13;0.77;;;;;;;7.33;100.00;99184.78;5008645;28;20120;-74
2023/04/12 05:32:09;;;;;;;2.47;0.80;;;;;;;7.30;100.00;99190.94;5033957;28;20028;-74
2023/04/12 05:34:34;;;;;;;3.15;1.10;;;;;;;7.32;100.00;99182.31;5017295;28;20040;-74
2023/04/12 05:37:00;;;;;;;8.25;1.02;;;;;;;7.26;100.00;99184.34;5051500;28;20040;-74
2023/04/12 05:39:26;;;;;;;4.07;1.20;;;;;;;7.26;100.00;99178.84;5031313;28;20033;-74
2023/04/12 05:41:52;;;;;;;5.07;1.10;;;;;;;7.25;100.00;99182.72;5049120;28;20397;-74
2023/04/12 05:44:17;;;;;;;2.63;0.90;;;;;;;7.23;100.00;99170.34;5017225;28;20080;-74
2023/04/12 05:46:42;;;;;;;5.32;0.98;;;;;;;7.21;100.00;99162.34;5045433;28;20036;-74
2023/04/12 05:49:08;;;;;;;7.25;1.20;;;;;;;7.15;100.00;99182.91;5006865;28;20045;-74
2023/04/12 05:51:34;;;;;;;7.60;1.33;;;;;;;7.12;100.00;99184.34;5039138;28;20030;-74
2023/04/12 05:54:00;;;;;;;5.97;1.38;;;;;;;7.06;100.00;99188.31;5046668;28;20037;-74
2023/04/12 05:56:25;;;;;;;4.90;1.30;;;;;;;7.03;100.00;99188.09;5033081;28;20034;-74
2023/04/12 05:58:51;;;;;;;6.90;1.40;;;;;;;7.05;100.00;99199.66;5025465;28;20038;-74
2023/04/12 06:01:18;;;;;;;7.00;1.52;;;;;;;7.07;100.00;99200.16;5044606;28;20037;-74
2023/04/12 06:03:43;;;;;;;7.32;1.02;;;;;;;7.07;100.00;99194.66;5030849;28;20096;-74
2023/04/12 06:06:09;;;;;;;4.50;1.77;;;;;;;7.10;100.00;99203.16;5013529;28;20033;-74
2023/04/12 06:08:36;;;;;;;9.32;2.00;;;;;;;7.16;100.00;99203.91;5043329;28;20026;-74
2023/04/12 06:11:05;;;;;;;8.02;2.17;;;;;;;7.20;100.00;99202.16;5017442;28;20107;-74
2023/04/12 06:13:30;;;;;;;8.27;2.45;;;;;;;7.29;100.00;99208.59;4981508;28;20084;-74
2023/04/12 06:15:55;;;;;;;6.43;2.45;;;;;;;7.36;100.00;99216.50;5017233;28;20030;-74
2023/04/12 06:18:21;;;;;;;7.93;2.10;;;;;;;7.41;100.00;99210.91;5017827;28;20064;-74
2023/04/12 06:20:46;;;;;;;5.60;1.73;;;;;;;7.50;100.00;99227.59;5017805;28;20037;-74
2023/04/12 06:23:12;;;;;;;5.97;1.90;;;;;;;7.60;100.00;99227.38;5032813;28;20025;-74
2023/04/12 06:25:37;;;;;;;7.68;1.90;;;;;;;7.68;100.00;99232.19;5016155;28;20087;-74
2023/04/12 06:28:03;;;;;;;8.27;1.90;;;;;;;7.77;100.00;99224.00;5033858;28;20062;-74
2023/04/12 06:30:29;;;;;;;8.98;2.47;;;;;;;7.88;100.00;99230.16;5017325;28;20664;-75
2023/04/12 06:32:54;;;;;;;5.65;1.75;;;;;;;7.99;100.00;99231.56;4973618;28;20033;-74
2023/04/12 06:35:20;;;;;;;7.00;1.60;;;;;;;8.10;100.00;99237.72;5019193;28;20029;-74
2023/04/12 06:37:45;;;;;;;5.47;1.27;;;;;;;8.23;100.00;99242.41;5027625;28;20026;-74
2023/04/12 06:40:11;;;;;;;7.97;1.58;;;;;;;8.35;100.00;99236.34;5047227;28;20038;-74
2023/04/12 06:42:37;;;;;;;9.65;1.55;;;;;;;8.43;100.00;99225.41;5031960;28;20038;-74
2023/04/12 06:45:03;;;;;;;5.93;1.60;;;;;;;8.57;100.00;99230.91;5032454;28;20044;-74
2023/04/12 06:47:29;;;;;;;4.95;1.30;;;;;;;8.70;100.00;99230.03;5034488;28;20037;-74
2023/04/12 06:49:56;;;;;;;6.05;1.52;;;;;;;8.83;100.00;99224.75;5044544;28;20104;-74
2023/04/12 06:52:25;;;;;;;5.35;1.35;;;;;;;8.97;100.00;99231.06;5029680;28;20045;-75
2023/04/12 06:54:51;;;;;;;5.05;1.20;;;;;;;9.11;100.00;99234.59;5002246;28;20025;-74
2023/04/12 06:57:17;;;;;;;5.57;1.50;;;;;;;9.27;100.00;99234.19;5003374;28;20478;-72
2023/04/12 06:59:42;;;;;;;6.82;1.13;;;;;;;9.43;100.00;99243.75;5037213;28;20040;-74
2023/04/12 07:02:08;;;;;;;8.10;1.30;;;;;;;9.57;100.00;99232.56;5004737;28;20390;-74
2023/04/12 07:04:33;;;;;;;4.97;1.10;;;;;;;9.68;100.00;99238.66;5040433;28;20382;-74
2023/04/12 07:06:59;;;;;;;7.28;1.27;;;;;;;9.79;100.00;99249.16;5021119;28;20025;-74
2023/04/12 07:09:24;;;;;;;5.28;1.63;;;;;;;9.87;100.00;99247.56;5032007;28;20022;-74
2023/04/12 07:11:50;;;;;;;7.63;1.40;;;;;;;9.95;100.00;99234.88;5038176;28;20034;-74
2023/04/12 07:14:15;;;;;;;5.72;1.70;;;;;;;10.09;100.00;99245.84;5034812;28;20142;-74
2023/04/12 07:16:42;;;;;;;7.57;1.40;;;;;;;10.18;100.00;99247.50;5017595;28;20041;-74
2023/04/12 07:19:07;;;;;;;6.95;1.27;;;;;;;10.31;100.00;99244.94;5022462;28;20030;-74
2023/04/12 07:21:33;;;;;;;10.15;1.77;;;;;;;10.42;100.00;99244.31;5029470;28;20482;-74
2023/04/12 07:23:58;;;;;;;6.70;1.55;;;;;;;10.56;100.00;99248.91;5017398;28;20030;-74
2023/04/12 07:26:24;;;;;;;6.70;1.55;;;;;;;10.70;100.00;99252.38;5010953;28;20029;-74
2023/04/12 07:28:50;;;;;;;6.28;1.00;;;;;;;10.79;100.00;99247.63;5032119;28;20041;-74
2023/04/12 07:31:16;;;;;;;5.20;1.00;;;;;;;10.88;100.00;99256.75;5033718;28;20026;-74
2023/04/12 07:33:41;;;;;;;4.75;1.17;;;;;;;10.98;100.00;99260.34;5018538;28;20033;-74
2023/04/12 07:36:07;;;;;;;5.65;1.10;;;;;;;11.06;100.00;99265.09;5047143;28;20060;-74
2023/04/12 07:38:32;;;;;;;6.18;1.17;;;;;;;11.09;100.00;99258.91;5003515;28;20727;-74
2023/04/12 07:40:58;;;;;;;6.88;1.40;;;;;;;11.15;100.00;99268.69;5003397;28;20041;-74
2023/04/12 07:43:24;;;;;;;4.40;1.10;;;;;;;11.17;100.00;99278.34;4987291;28;20053;-74
2023/04/12 07:45:50;;;;;;;7.45;1.33;;;;;;;11.19;100.00;99275.22;4996647;28;20080;-74
2023/04/12 07:48:16;;;;;;;3.38;1.25;;;;;;;11.23;100.00;99275.38;5050899;28;20123;-74
2023/04/12 07:50:42;;;;;;;5.72;1.08;;;;;;;11.20;100.00;99279.66;5000385;28;20034;-74
2023/04/12 07:53:23;;;;;;;5.72;0.90;;;;;;;11.23;100.00;99281.78;5016834;28;20069;-74
2023/04/12 07:55:48;;;;;;;5.68;1.42;;;;;;;11.26;100.00;99283.09;5046731;28;20142;-73
2023/04/12 07:58:15;;;;;;;6.10;1.48;;;;;;;11.23;100.00;99289.28;4989430;28;20029;-74
2023/04/12 08:00:40;;;;;;;5.80;1.20;;;;;;;11.19;100.00;99291.91;5002578;28;20045;-74
2023/04/12 08:03:06;;;;;;;4.32;0.93;;;;;;;11.18;100.00;99295.84;5035738;28;20025;-74
2023/04/12 08:05:31;;;;;;;5.85;1.00;;;;;;;11.19;100.00;99297.44;5016488;28;20558;-74
2023/04/12 08:07:56;;;;;;;6.40;1.25;;;;;;;11.16;100.00;99285.03;5036164;28;20364;-74
2023/04/12 08:10:22;;;;;;;6.40;1.00;;;;;;;11.12;100.00;99288.81;5004944;28;20033;-74
2023/04/12 08:12:47;;;;;;;6.25;1.00;;;;;;;11.15;100.00;99288.97;5035894;28;20033;-74
2023/04/12 08:15:13;;;;;;;4.50;1.10;;;;;;;11.13;100.00;99287.66;4986587;28;20386;-74
2023/04/12 08:17:38;;;;;;;5.40;1.10;;;;;;;11.15;100.00;99288.16;4999904;28;20041;-74
2023/04/12 08:20:05;;;;;;;5.00;1.13;;;;;;;11.21;100.00;99289.63;5039317;28;20033;-74
2023/04/12 08:22:30;;;;;;;3.95;1.13;;;;;;;11.29;100.00;99294.34;5038599;28;20030;-74
2023/04/12 08:24:56;;;;;;;4.18;1.10;;;;;;;11.38;100.00;99297.94;5038146;28;20486;-74
2023/04/12 08:27:21;;;;;;;7.82;1.60;;;;;;;11.48;100.00;99287.59;5015649;28;20092;-74
2023/04/12 08:29:47;;;;;;;5.35;1.00;;;;;;;11.60;100.00;99291.34;5044735;28;20029;-74
2023/04/12 08:32:12;;;;;;;6.35;1.30;;;;;;;11.73;100.00;99292.31;5035468;28;20084;-74
2023/04/12 08:34:38;;;;;;;3.35;1.13;;;;;;;11.90;100.00;99293.44;4999576;28;20104;-74
2023/04/12 08:37:03;;;;;;;5.78;1.42;;;;;;;12.04;100.00;99294.03;5050227;28;20409;-74
2023/04/12 08:39:32;;;;;;;7.13;1.45;;;;;;;12.20;100.00;99297.06;5015732;28;20049;-74
2023/04/12 08:41:57;;;;;;;8.13;0.90;;;;;;;12.35;100.00;99298.50;5027752;28;20072;-74
2023/04/12 08:44:37;;;;;;;6.60;1.33;;;;;;;12.44;100.00;99290.91;5024864;28;20034;-74
2023/04/12 08:47:03;;;;;;;3.60;0.90;;;;;;;12.57;100.00;99291.81;5026964;28;20481;-74
2023/04/12 08:49:30;;;;;;;4.93;1.20;;;;;;;12.67;100.00;99299.75;5018524;28;20072;-74
2023/04/12 08:51:57;;;;;;;5.72;1.02;;;;;;;12.72;100.00;99291.22;5025905;28;20391;-74
2023/04/12 08:54:23;;;;;;;5.78;1.00;;;;;;;12.82;100.00;99290.81;5017405;28;20113;-74
2023/04/12 08:56:49;;;;;;;6.85;0.95;;;;;;;12.92;100.00;99295.16;5035464;28;20045;-74
2023/04/12 08:59:15;;;;;;;3.83;0.80;;;;;;;13.03;100.00;99299.19;5002127;28;20037;-74
2023/04/12 09:01:40;;;;;;;3.85;0.90;;;;;;;13.08;100.00;99290.63;5048437;28;20701;-74
2023/04/12 09:04:06;;;;;;;4.57;1.05;;;;;;;13.19;100.00;99291.84;5034946;28;20034;-74
2023/04/12 09:06:32;;;;;;;4.68;1.25;;;;;;;13.27;100.00;99292.13;5032448;28;20065;-74
2023/04/12 09:08:59;;;;;;;5.90;0.75;;;;;;;13.37;100.00;99298.13;5017553;28;20049;-74
2023/04/12 09:11:25;;;;;;;4.45;0.85;;;;;;;13.49;100.00;99294.56;5054516;28;20079;-74
2023/04/12 09:13:52;;;;;;;4.15;0.88;;;;;;;13.64;100.00;99293.88;5035320;28;20097;-74
2023/04/12 09:16:19;;;;;;;3.35;0.77;;;;;;;13.82;100.00;99288.16;5031474;28;20121;-74
2023/04/12 09:18:50;;;;;;;3.53;0.65;;;;;;;13.95;100.00;99289.78;5047296;28;20033;-74
2023/04/12 09:21:16;;;;;;;5.68;1.00;;;;;;;14.15;100.00;99284.44;5001113;28;20110;-74
2023/04/12 09:23:42;;;;;;;3.67;0.70;;;;;;;14.32;100.00;99292.63;5018477;28;20045;-74
2023/04/12 09:26:08;;;;;;;5.38;0.80;;;;;;;14.46;100.00;99292.28;5018442;28;20029;-74
2023/04/12 09:28:33;;;;;;;4.65;1.00;;;;;;;14.60;100.00;99292.75;5029673;28;20458;-74
2023/04/12 09:30:59;;;;;;;4.50;0.98;;;;;;;14.74;100.00;99301.59;5005236;28;20045;-74
2023/04/12 09:33:37;;;;;;;3.80;0.80;;;;;;;14.91;100.00;99289.34;5018429;28;20025;-74
2023/04/12 09:36:04;;;;;;;6.75;1.00;;;;;;;15.02;100.00;99286.88;5038655;28;20040;-74
2023/04/12 09:38:32;;;;;;;5.97;0.80;;;;;;;15.17;100.00;99280.50;5014565;28;20060;-75
2023/04/12 09:41:17;;;;;;;3.80;0.70;;;;;;;15.35;100.00;99266.22;5025749;28;20031;-74
2023/04/12 09:43:43;;;;;;;3.40;1.10;;;;;;;15.46;100.00;99264.56;5012490;28;20040;-74
2023/04/12 09:46:11;;;;;;;8.95;1.30;;;;;;;15.61;100.00;99276.97;5001573;28;20030;-74
2023/04/12 09:48:37;;;;;;;4.97;0.90;;;;;;;15.74;100.00;99278.56;5001815;28;20056;-74
2023/04/12 09:51:03;;;;;;;6.43;1.17;;;;;;;15.82;100.00;99266.38;5001851;28;20034;-74
2023/04/12 09:53:28;;;;;;;4.25;1.00;;;;;;;15.92;100.00;99275.41;5017576;28;20375;-75
2023/04/12 09:55:54;;;;;;;4.28;0.73;;;;;;;15.98;100.00;99279.56;5001742;28;20041;-74
2023/04/12 09:58:20;;;;;;;5.78;1.15;;;;;;;16.03;100.00;99282.09;5018388;28;20037;-74
2023/04/12 10:00:45;;;;;;;4.13;0.98;;;;;;;16.03;100.00;99270.91;5004935;28;20030;-74
2023/04/12 10:03:11;;;;;;;10.00;1.10;;;;;;;16.08;100.00;99279.03;4998316;28;20029;-74
2023/04/12 10:05:39;;;;;;;4.10;0.82;;;;;;;16.16;100.00;99283.66;5017634;28;20041;-74
2023/04/12 10:08:04;;;;;;;6.10;1.23;;;;;;;16.28;100.00;99277.94;5034024;28;20042;-74
2023/04/12 10:10:30;;;;;;;3.75;0.80;;;;;;;16.39;100.00;99267.00;5034362;28;20485;-75
2023/04/12 10:12:55;;;;;;;3.80;0.68;;;;;;;16.50;100.00;99272.88;5050021;28;20033;-74
2023/04/12 10:15:21;;;;;;;6.93;1.00;;;;;;;16.63;100.00;99276.34;5037533;28;20064;-74
2023/04/12 10:17:53;;;;;;;7.90;1.00;;;;;;;16.75;100.00;99279.88;4994427;28;20029;-74
2023/04/12 10:20:19;;;;;;;4.50;1.10;;;;;;;16.88;98.85;99263.78;5031704;28;20026;-75
2023/04/12 10:22:46;;;;;;;8.63;1.67;;;;;;;16.94;91.04;99283.94;5018062;28;20037;-74
2023/04/12 10:25:14;;;;;;;4.80;1.20;;;;;;;16.92;87.27;99267.44;5015719;28;20099;-75
2023/04/12 10:27:41;;;;;;;8.50;1.25;;;;;;;16.97;86.52;99274.78;5009988;28;20400;-74
2023/04/12 10:30:28;;;;;;;5.95;1.13;;;;;;;17.04;86.32;99274.91;5036821;28;20061;-74
2023/04/12 10:33:03;;;;;;;6.82;1.05;;;;;;;17.06;85.50;99255.72;5025770;28;20116;-75
2023/04/12 10:35:49;;;;;;;9.02;1.30;;;;;;;17.06;87.01;99261.34;5026028;28;20487;-74
2023/04/12 10:38:15;;;;;;;4.97;1.10;;;;;;;17.05;83.68;99253.28;5033948;28;20021;-74
2023/04/12 10:41:15;;;;;;;4.40;0.90;;;;;;;17.14;87.09;99257.50;5038007;28;20040;-75
2023/04/12 10:43:42;;;;;;;5.90;1.20;;;;;;;17.18;82.51;99249.97;5033846;28;20061;-74
2023/04/12 10:46:20;;;;;;;7.00;1.33;;;;;;;17.26;85.56;99247.31;5032112;28;20485;-75
2023/04/12 10:48:52;;;;;;;6.20;1.13;;;;;;;17.31;83.79;99250.63;5033856;28;20048;-75
2023/04/12 10:51:28;;;;;;;7.80;1.37;;;;;;;17.40;80.51;99267.25;5045391;28;20109;-74
2023/04/12 10:54:14;;;;;;;7.32;1.10;;;;;;;17.40;75.67;99268.06;5037449;28;20279;-75
2023/04/12 10:56:40;;;;;;;10.32;1.60;;;;;;;17.39;75.88;99269.25;5036701;28;20087;-75
2023/04/12 10:59:09;;;;;;;10.10;1.40;;;;;;;17.35;75.61;99257.13;5004659;28;20048;-75
2023/04/12 11:01:35;;;;;;;6.30;1.05;;;;;;;17.33;76.18;99259.50;5005086;28;20037;-74
2023/04/12 11:04:15;;;;;;;6.85;1.33;;;;;;;17.31;73.66;99258.25;5053620;28;20040;-74
2023/04/12 11:07:05;;;;;;;8.00;1.50;;;;;;;17.26;74.85;99258.53;5023910;28;20030;-74
2023/04/12 11:09:34;;;;;;;6.97;1.42;;;;;;;17.19;75.23;99251.63;5039585;28;20184;-74
2023/04/12 11:12:02;;;;;;;8.07;1.23;;;;;;;17.13;73.22;99232.63;5039409;28;20111;-75
2023/04/12 11:14:32;;;;;;;8.45;0.95;;;;;;;17.16;73.80;99229.06;5038108;28;20030;-75
2023/04/12 11:17:07;;;;;;;7.32;1.10;;;;;;;17.14;75.05;99229.47;4988421;28;20121;-74
2023/04/12 11:19:33;;;;;;;6.53;1.20;;;;;;;17.12;71.90;99222.59;5005503;28;20803;-75
2023/04/12 11:22:00;;;;;;;7.03;1.10;;;;;;;17.15;73.07;99224.66;5019284;28;20029;-75
2023/04/12 11:24:26;;;;;;;6.95;1.02;;;;;;;17.15;70.27;99227.47;5020423;28;20497;-75
2023/04/12 11:26:51;;;;;;;5.75;0.90;;;;;;;17.18;72.23;99235.13;4984460;28;20026;-75
2023/04/12 11:29:24;;;;;;;8.15;1.42;;;;;;;17.25;69.14;99242.91;5036514;28;20021;-74
2023/04/12 11:31:49;;;;;;;6.50;1.90;;;;;;;17.26;67.85;99261.34;5017820;28;20035;-74